sensor_id;sensor_type;location;lat;lon;timestamp;pressure;altitude;pressure_sealevel;temperature;humidity
54022;BME280;39936;51.058;17.220;2023-05-01T00:04:58;102313.74;;;2.33;100.00
54022;BME280;39936;51.058;17.220;2023-05-01T00:08:34;102309.98;;;2.17;100.00
54022;BME280;39936;51.058;17.220;2023-05-01T00:12:10;102309.79;;;2.12;100.00
54022;BME280;39936;51.058;17.220;2023-05-01T00:15:46;102295.65;;;2.03;100.00
54022;BME280;39936;51.058;17.220;2023-05-01T00:19:14;102301.50;;;2.11;100.00
54022;BME280;39936;51.058;17.220;2023-05-01T00:23:03;102298.11;;;2.13;100.00
54022;BME280;39936;51.058;17.220;2023-05-01T00:26:23;102297.05;;;2.02;100.00
54022;BME280;39936;51.058;17.220;2023-05-01T00:30:17;102292.89;;;1.91;100.00
54022;BME280;39936;51.058;17.220;2023-05-01T00:33:50;102286.45;;;1.85;100.00
54022;BME280;39936;51.058;17.220;2023-05-01T00:41:20;102293.35;;;1.67;100.00
54022;BME280;39936;51.058;17.220;2023-05-01T00:45:19;102268.99;;;1.64;100.00
54022;BME280;39936;51.058;17.220;2023-05-01T00:49:45;102274.84;;;1.62;100.00
54022;BME280;39936;51.058;17.220;2023-05-01T00:53:31;102283.30;;;1.72;100.00
54022;BME280;39936;51.058;17.220;2023-05-01T00:57:08;102244.48;;;1.55;100.00
54022;BME280;39936;51.058;17.220;2023-05-01T01:00:53;102274.39;;;1.76;100.00
54022;BME280;39936;51.058;17.220;2023-05-01T01:40:00;102277.38;;;1.09;100.00
54022;BME280;39936;51.058;17.220;2023-05-01T01:43:20;102275.13;;;0.97;100.00
54022;BME280;39936;51.058;17.220;2023-05-01T01:47:23;102269.70;;;0.65;100.00
54022;BME280;39936;51.058;17.220;2023-05-01T01:51:13;102237.46;;;0.48;100.00
54022;BME280;39936;51.058;17.220;2023-05-01T01:55:15;102276.34;;;0.74;100.00
54022;BME280;39936;51.058;17.220;2023-05-01T01:58:43;102270.05;;;0.77;100.00
54022;BME280;39936;51.058;17.220;2023-05-01T02:02:36;102270.07;;;0.86;100.00
54022;BME280;39936;51.058;17.220;2023-05-01T02:06:21;102270.03;;;0.89;100.00
54022;BME280;39936;51.058;17.220;2023-05-01T02:10:04;102268.32;;;0.91;100.00
54022;BME280;39936;51.058;17.220;2023-05-01T02:13:53;102266.75;;;0.90;100.00
54022;BME280;39936;51.058;17.220;2023-05-01T02:17:31;102263.43;;;0.81;100.00
54022;BME280;39936;51.058;17.220;2023-05-01T02:20:52;102258.61;;;0.75;100.00
54022;BME280;39936;51.058;17.220;2023-05-01T02:24:43;102261.87;;;0.65;100.00
54022;BME280;39936;51.058;17.220;2023-05-01T02:36:24;102251.21;;;0.26;100.00
54022;BME280;39936;51.058;17.220;2023-05-01T02:40:20;102214.55;;;0.06;100.00
54022;BME280;39936;51.058;17.220;2023-05-01T02:44:38;102256.32;;;0.32;100.00
54022;BME280;39936;51.058;17.220;2023-05-01T02:48:24;102247.92;;;0.41;100.00
54022;BME280;39936;51.058;17.220;2023-05-01T02:56:04;102249.20;;;0.46;100.00
54022;BME280;39936;51.058;17.220;2023-05-01T02:59:35;102248.67;;;0.36;100.00
54022;BME280;39936;51.058;17.220;2023-05-01T03:03:29;102246.37;;;0.28;100.00
54022;BME280;39936;51.058;17.220;2023-05-01T03:07:14;102243.73;;;0.19;100.00
54022;BME280;39936;51.058;17.220;2023-05-01T03:11:25;102239.77;;;0.13;100.00
54022;BME280;39936;51.058;17.220;2023-05-01T03:15:10;102242.98;;;0.04;100.00
54022;BME280;39936;51.058;17.220;2023-05-01T03:19:23;102217.62;;;-0.36;100.00
54022;BME280;39936;51.058;17.220;2023-05-01T03:22:58;102247.16;;;-0.19;100.00
54022;BME280;39936;51.058;17.220;2023-05-01T03:26:45;102237.88;;;-0.12;100.00
54022;BME280;39936;51.058;17.220;2023-05-01T03:30:13;102237.19;;;-0.15;100.00
54022;BME280;39936;51.058;17.220;2023-05-01T03:33:39;102236.63;;;-0.08;100.00
54022;BME280;39936;51.058;17.220;2023-05-01T03:37:28;102236.35;;;0.07;100.00
54022;BME280;39936;51.058;17.220;2023-05-01T03:41:03;102229.74;;;0.31;100.00
54022;BME280;39936;51.058;17.220;2023-05-01T03:44:40;102231.39;;;0.45;100.00
54022;BME280;39936;51.058;17.220;2023-05-01T03:47:58;102194.63;;;0.67;100.00
54022;BME280;39936;51.058;17.220;2023-05-01T03:51:49;102219.23;;;1.31;100.00
54022;BME280;39936;51.058;17.220;2023-05-01T03:55:32;102211.15;;;1.89;100.00
54022;BME280;39936;51.058;17.220;2023-05-01T03:58:53;102188.09;;;3.22;100.00
54022;BME280;39936;51.058;17.220;2023-05-01T04:02:54;102194.27;;;4.76;100.00
54022;BME280;39936;51.058;17.220;2023-05-01T04:06:39;102188.52;;;6.65;100.00
54022;BME280;39936;51.058;17.220;2023-05-01T04:10:18;102183.09;;;6.96;85.96
54022;BME280;39936;51.058;17.220;2023-05-01T04:14:20;102163.14;;;6.61;84.38
54022;BME280;39936;51.058;17.220;2023-05-01T04:18:04;102135.30;;;7.89;86.86
54022;BME280;39936;51.058;17.220;2023-05-01T04:21:22;102154.67;;;9.60;79.02
54022;BME280;39936;51.058;17.220;2023-05-01T04:25:05;102115.88;;;9.23;67.01
54022;BME280;39936;51.058;17.220;2023-05-01T04:29:08;102153.50;;;10.21;69.20
54022;BME280;39936;51.058;17.220;2023-05-01T04:32:44;102146.91;;;11.97;67.32
54022;BME280;39936;51.058;17.220;2023-05-01T04:36:06;102155.44;;;10.66;55.36
54022;BME280;39936;51.058;17.220;2023-05-01T04:40:19;102154.58;;;8.03;62.53
54022;BME280;39936;51.058;17.220;2023-05-01T04:47:37;102206.50;;;4.50;81.76
54022;BME280;39936;51.058;17.220;2023-05-01T04:51:27;102193.51;;;3.90;87.69
54022;BME280;39936;51.058;17.220;2023-05-01T04:55:01;102202.73;;;3.94;90.34
54022;BME280;39936;51.058;17.220;2023-05-01T04:58:45;102202.23;;;4.04;92.30
54022;BME280;39936;51.058;17.220;2023-05-01T05:01:57;102205.98;;;4.29;93.84
54022;BME280;39936;51.058;17.220;2023-05-01T05:05:36;102205.84;;;4.32;93.57
54022;BME280;39936;51.058;17.220;2023-05-01T05:09:17;102198.69;;;4.52;95.07
54022;BME280;39936;51.058;17.220;2023-05-01T05:12:50;102196.13;;;4.76;96.22
54022;BME280;39936;51.058;17.220;2023-05-01T05:16:18;102194.88;;;5.03;95.78
54022;BME280;39936;51.058;17.220;2023-05-01T05:19:56;102194.16;;;5.10;94.56
54022;BME280;39936;51.058;17.220;2023-05-01T05:23:32;102191.09;;;5.26;91.77
54022;BME280;39936;51.058;17.220;2023-05-01T05:27:11;102191.89;;;5.19;88.59
54022;BME280;39936;51.058;17.220;2023-05-01T05:30:49;102184.09;;;5.34;90.66
54022;BME280;39936;51.058;17.220;2023-05-01T05:34:39;102180.48;;;5.53;88.91
54022;BME280;39936;51.058;17.220;2023-05-01T05:38:09;102171.85;;;5.82;89.22
54022;BME280;39936;51.058;17.220;2023-05-01T05:41:28;102170.55;;;6.18;88.17
54022;BME280;39936;51.058;17.220;2023-05-01T05:44:50;102166.39;;;6.68;86.76
54022;BME280;39936;51.058;17.220;2023-05-01T05:48:37;102164.75;;;6.93;84.76
54022;BME280;39936;51.058;17.220;2023-05-01T05:52:09;102163.38;;;7.06;81.42
54022;BME280;39936;51.058;17.220;2023-05-01T05:55:49;102157.92;;;7.27;80.95
54022;BME280;39936;51.058;17.220;2023-05-01T05:59:38;102157.05;;;7.47;80.01
54022;BME280;39936;51.058;17.220;2023-05-01T06:03:15;102159.23;;;7.62;81.09
54022;BME280;39936;51.058;17.220;2023-05-01T06:06:33;102162.41;;;7.79;79.09
54022;BME280;39936;51.058;17.220;2023-05-01T06:10:34;102159.00;;;8.19;79.95
54022;BME280;39936;51.058;17.220;2023-05-01T06:14:29;102153.55;;;8.83;77.21
54022;BME280;39936;51.058;17.220;2023-05-01T06:18:12;102146.17;;;9.25;70.49
54022;BME280;39936;51.058;17.220;2023-05-01T06:22:18;102140.78;;;9.31;71.33
54022;BME280;39936;51.058;17.220;2023-05-01T06:25:56;102119.50;;;9.49;68.75
54022;BME280;39936;51.058;17.220;2023-05-01T06:29:39;102137.55;;;9.95;67.94
54022;BME280;39936;51.058;17.220;2023-05-01T06:32:57;102135.39;;;10.07;64.95
54022;BME280;39936;51.058;17.220;2023-05-01T06:36:52;102133.24;;;10.51;63.92
54022;BME280;39936;51.058;17.220;2023-05-01T06:40:22;102096.77;;;10.92;61.88
54022;BME280;39936;51.058;17.220;2023-05-01T06:44:33;102118.94;;;11.14;60.96
54022;BME280;39936;51.058;17.220;2023-05-01T06:51:43;102113.72;;;11.99;59.10
54022;BME280;39936;51.058;17.220;2023-05-01T06:55:10;102112.16;;;12.19;56.13
54022;BME280;39936;51.058;17.220;2023-05-01T06:58:53;102109.19;;;12.25;56.04
54022;BME280;39936;51.058;17.220;2023-05-01T07:02:11;102067.08;;;12.10;52.57
54022;BME280;39936;51.058;17.220;2023-05-01T07:05:27;102095.44;;;12.39;54.53
54022;BME280;39936;51.058;17.220;2023-05-01T07:09:16;102084.59;;;12.73;54.41
54022;BME280;39936;51.058;17.220;2023-05-01T07:13:03;102080.65;;;13.12;51.77
54022;BME280;39936;51.058;17.220;2023-05-01T07:17:04;102077.34;;;13.44;51.12
54022;BME280;39936;51.058;17.220;2023-05-01T07:21:05;102077.85;;;13.29;49.01
54022;BME280;39936;51.058;17.220;2023-05-01T07:24:58;102079.12;;;13.27;51.58
54022;BME280;39936;51.058;17.220;2023-05-01T07:28:13;102041.11;;;13.40;50.80
54022;BME280;39936;51.058;17.220;2023-05-01T07:32:07;102068.50;;;13.73;48.85
54022;BME280;39936;51.058;17.220;2023-05-01T07:35:26;102046.02;;;13.41;47.54
54022;BME280;39936;51.058;17.220;2023-05-01T07:38:51;102075.91;;;13.50;49.29
54022;BME280;39936;51.058;17.220;2023-05-01T07:42:12;102066.57;;;13.66;49.48
54022;BME280;39936;51.058;17.220;2023-05-01T07:45:55;102060.19;;;13.76;48.44
54022;BME280;39936;51.058;17.220;2023-05-01T07:49:37;102059.93;;;14.02;47.11
54022;BME280;39936;51.058;17.220;2023-05-01T07:52:52;102060.80;;;14.10;47.22
54022;BME280;39936;51.058;17.220;2023-05-01T07:56:14;102060.54;;;14.14;46.83
54022;BME280;39936;51.058;17.220;2023-05-01T07:59:53;102060.16;;;14.17;45.90
54022;BME280;39936;51.058;17.220;2023-05-01T08:03:18;102056.66;;;14.15;46.55
54022;BME280;39936;51.058;17.220;2023-05-01T08:06:42;102056.22;;;14.18;46.57
54022;BME280;39936;51.058;17.220;2023-05-01T08:10:25;102055.15;;;14.34;46.01
54022;BME280;39936;51.058;17.220;2023-05-01T08:13:45;102049.27;;;14.53;45.05
54022;BME280;39936;51.058;17.220;2023-05-01T08:21:39;102044.89;;;14.28;44.83
54022;BME280;39936;51.058;17.220;2023-05-01T08:24:57;102014.96;;;14.15;45.50
54022;BME280;39936;51.058;17.220;2023-05-01T08:28:44;102040.82;;;14.33;46.24
54022;BME280;39936;51.058;17.220;2023-05-01T08:32:25;102030.55;;;14.47;44.67
54022;BME280;39936;51.058;17.220;2023-05-01T08:35:47;102028.18;;;14.47;44.60
54022;BME280;39936;51.058;17.220;2023-05-01T08:39:22;102016.77;;;14.66;46.57
54022;BME280;39936;51.058;17.220;2023-05-01T08:42:38;102011.16;;;14.85;42.97
54022;BME280;39936;51.058;17.220;2023-05-01T08:46:06;101985.92;;;14.47;42.87
54022;BME280;39936;51.058;17.220;2023-05-01T08:49:43;102026.41;;;14.69;43.57
54022;BME280;39936;51.058;17.220;2023-05-01T08:53:31;102016.02;;;14.96;45.10
54022;BME280;39936;51.058;17.220;2023-05-01T09:02:00;102010.68;;;15.24;44.66
54022;BME280;39936;51.058;17.220;2023-05-01T09:05:40;101999.59;;;14.76;41.22
54022;BME280;39936;51.058;17.220;2023-05-01T09:09:01;101994.57;;;14.51;43.96
54022;BME280;39936;51.058;17.220;2023-05-01T09:12:25;101992.22;;;14.74;44.01
54022;BME280;39936;51.058;17.220;2023-05-01T09:16:26;101987.27;;;14.84;42.40
54022;BME280;39936;51.058;17.220;2023-05-01T09:20:30;101982.97;;;14.93;42.53
54022;BME280;39936;51.058;17.220;2023-05-01T09:24:00;101979.70;;;15.24;43.01
54022;BME280;39936;51.058;17.220;2023-05-01T09:27:39;101976.13;;;15.50;41.61
54022;BME280;39936;51.058;17.220;2023-05-01T09:30:54;101939.46;;;15.29;42.38
54022;BME280;39936;51.058;17.220;2023-05-01T09:34:35;101946.68;;;15.30;42.06
54022;BME280;39936;51.058;17.220;2023-05-01T09:37:48;101970.41;;;15.65;41.22
54022;BME280;39936;51.058;17.220;2023-05-01T09:41:19;101961.91;;;15.58;38.16
54022;BME280;39936;51.058;17.220;2023-05-01T09:44:44;101956.69;;;15.79;40.70
54022;BME280;39936;51.058;17.220;2023-05-01T09:48:56;101951.73;;;15.91;37.78
54022;BME280;39936;51.058;17.220;2023-05-01T09:52:35;101953.42;;;15.89;38.57
54022;BME280;39936;51.058;17.220;2023-05-01T09:56:31;101948.71;;;16.02;38.07
54022;BME280;39936;51.058;17.220;2023-05-01T10:03:41;101942.23;;;15.50;35.30
54022;BME280;39936;51.058;17.220;2023-05-01T10:07:20;101939.82;;;15.69;36.82
54022;BME280;39936;51.058;17.220;2023-05-01T10:10:39;101929.79;;;15.90;38.61
54022;BME280;39936;51.058;17.220;2023-05-01T10:15:03;101930.70;;;16.32;39.25
54022;BME280;39936;51.058;17.220;2023-05-01T10:18:29;101874.88;;;16.35;36.97
54022;BME280;39936;51.058;17.220;2023-05-01T10:21:48;101892.85;;;16.57;35.00
54022;BME280;39936;51.058;17.220;2023-05-01T10:25:31;101894.32;;;16.72;37.68
54022;BME280;39936;51.058;17.220;2023-05-01T10:33:16;101872.02;;;17.35;37.08
54022;BME280;39936;51.058;17.220;2023-05-01T10:56:04;101852.12;;;17.97;34.03
54022;BME280;39936;51.058;17.220;2023-05-01T11:00:24;101849.57;;;17.86;34.41
54022;BME280;39936;51.058;17.220;2023-05-01T11:03:42;101809.05;;;17.32;35.47
54022;BME280;39936;51.058;17.220;2023-05-01T11:07:13;101841.64;;;17.60;32.37
54022;BME280;39936;51.058;17.220;2023-05-01T11:10:54;101835.41;;;17.27;33.35
54022;BME280;39936;51.058;17.220;2023-05-01T11:15:27;101827.86;;;17.65;35.08
54022;BME280;39936;51.058;17.220;2023-05-01T11:18:54;101824.00;;;17.88;34.76
54022;BME280;39936;51.058;17.220;2023-05-01T11:22:15;101816.60;;;18.17;34.28
54022;BME280;39936;51.058;17.220;2023-05-01T11:25:40;101808.34;;;18.10;34.94
54022;BME280;39936;51.058;17.220;2023-05-01T11:33:20;101796.41;;;18.12;35.08
54022;BME280;39936;51.058;17.220;2023-05-01T11:37:40;101791.62;;;18.04;36.42
54022;BME280;39936;51.058;17.220;2023-05-01T11:41:02;101781.23;;;18.33;35.84
54022;BME280;39936;51.058;17.220;2023-05-01T11:44:38;101775.01;;;18.33;33.37
54022;BME280;39936;51.058;17.220;2023-05-01T11:48:29;101776.02;;;17.98;31.73
54022;BME280;39936;51.058;17.220;2023-05-01T11:52:00;101745.13;;;17.38;33.88
54022;BME280;39936;51.058;17.220;2023-05-01T12:03:46;101757.54;;;17.68;32.78
54022;BME280;39936;51.058;17.220;2023-05-01T12:07:25;101744.46;;;17.76;34.16
54022;BME280;39936;51.058;17.220;2023-05-01T12:11:52;101738.38;;;18.12;34.20
54022;BME280;39936;51.058;17.220;2023-05-01T12:15:53;101732.99;;;18.41;34.13
54022;BME280;39936;51.058;17.220;2023-05-01T12:19:25;101728.05;;;18.48;32.06
54022;BME280;39936;51.058;17.220;2023-05-01T12:22:54;101725.74;;;18.43;33.63
54022;BME280;39936;51.058;17.220;2023-05-01T12:26:35;101724.41;;;18.71;33.86
54022;BME280;39936;51.058;17.220;2023-05-01T12:30:37;101681.34;;;18.61;34.43
54022;BME280;39936;51.058;17.220;2023-05-01T12:39:09;101703.08;;;17.62;33.78
54022;BME280;39936;51.058;17.220;2023-05-01T12:47:02;101668.40;;;18.18;32.43
54022;BME280;39936;51.058;17.220;2023-05-01T12:50:36;101680.52;;;18.83;33.65
54022;BME280;39936;51.058;17.220;2023-05-01T12:53:59;101672.52;;;19.14;32.80
54022;BME280;39936;51.058;17.220;2023-05-01T13:01:27;101662.31;;;18.75;31.94
54022;BME280;39936;51.058;17.220;2023-05-01T13:05:28;101667.76;;;18.86;31.15
54022;BME280;39936;51.058;17.220;2023-05-01T13:09:16;101650.94;;;19.17;30.08
54022;BME280;39936;51.058;17.220;2023-05-01T13:13:00;101620.63;;;18.92;30.38
54022;BME280;39936;51.058;17.220;2023-05-01T13:20:35;101628.74;;;19.05;29.67
54022;BME280;39936;51.058;17.220;2023-05-01T13:24:23;101621.42;;;19.27;30.51
54022;BME280;39936;51.058;17.220;2023-05-01T13:28:06;101620.83;;;19.43;32.48
54022;BME280;39936;51.058;17.220;2023-05-01T13:32:20;101616.27;;;19.60;31.23
54022;BME280;39936;51.058;17.220;2023-05-01T13:36:59;101609.34;;;19.32;30.18
54022;BME280;39936;51.058;17.220;2023-05-01T13:41:20;101603.14;;;19.87;32.47
54022;BME280;39936;51.058;17.220;2023-05-01T13:45:02;101586.88;;;20.29;32.53
54022;BME280;39936;51.058;17.220;2023-05-01T13:49:03;101594.55;;;20.48;30.91
54022;BME280;39936;51.058;17.220;2023-05-01T13:56:44;101590.69;;;19.43;29.99
54022;BME280;39936;51.058;17.220;2023-05-01T14:00:03;101585.73;;;19.41;31.71
54022;BME280;39936;51.058;17.220;2023-05-01T14:03:45;101578.12;;;19.72;32.62
54022;BME280;39936;51.058;17.220;2023-05-01T14:07:24;101572.35;;;19.34;32.11
54022;BME280;39936;51.058;17.220;2023-05-01T14:11:17;101565.34;;;18.96;31.28
54022;BME280;39936;51.058;17.220;2023-05-01T14:14:46;101554.39;;;19.09;32.73
54022;BME280;39936;51.058;17.220;2023-05-01T14:18:58;101544.22;;;19.48;33.14
54022;BME280;39936;51.058;17.220;2023-05-01T14:22:40;101549.18;;;19.87;30.65
54022;BME280;39936;51.058;17.220;2023-05-01T14:26:06;101545.81;;;19.73;29.86
54022;BME280;39936;51.058;17.220;2023-05-01T14:29:25;101539.68;;;19.76;32.19
54022;BME280;39936;51.058;17.220;2023-05-01T14:33:08;101528.12;;;20.03;31.67
54022;BME280;39936;51.058;17.220;2023-05-01T14:37:00;101528.73;;;20.45;32.65
54022;BME280;39936;51.058;17.220;2023-05-01T14:40:41;101514.64;;;20.64;30.80
54022;BME280;39936;51.058;17.220;2023-05-01T14:44:21;101503.66;;;20.68;29.89
54022;BME280;39936;51.058;17.220;2023-05-01T14:48:21;101497.64;;;20.66;31.88
54022;BME280;39936;51.058;17.220;2023-05-01T14:51:59;101492.92;;;20.86;31.81
54022;BME280;39936;51.058;17.220;2023-05-01T14:55:21;101492.98;;;20.97;32.04
54022;BME280;39936;51.058;17.220;2023-05-01T14:58:44;101498.02;;;21.00;31.95
54022;BME280;39936;51.058;17.220;2023-05-01T15:02:46;101497.88;;;20.82;31.57
54022;BME280;39936;51.058;17.220;2023-05-01T15:06:18;101493.14;;;20.67;31.14
54022;BME280;39936;51.058;17.220;2023-05-01T15:09:54;101492.87;;;20.41;31.75
54022;BME280;39936;51.058;17.220;2023-05-01T15:13:40;101484.66;;;20.45;32.14
54022;BME280;39936;51.058;17.220;2023-05-01T15:17:22;101480.94;;;20.11;32.66
54022;BME280;39936;51.058;17.220;2023-05-01T15:21:16;101484.13;;;19.74;32.98
54022;BME280;39936;51.058;17.220;2023-05-01T15:24:31;101480.05;;;19.71;33.01
54022;BME280;39936;51.058;17.220;2023-05-01T15:28:06;101446.96;;;19.66;34.50
54022;BME280;39936;51.058;17.220;2023-05-01T15:32:23;101470.61;;;19.48;34.69
54022;BME280;39936;51.058;17.220;2023-05-01T15:35:39;101469.73;;;19.52;35.65
54022;BME280;39936;51.058;17.220;2023-05-01T15:39:28;101442.63;;;19.55;35.48
54022;BME280;39936;51.058;17.220;2023-05-01T15:42:51;101459.41;;;19.47;36.22
54022;BME280;39936;51.058;17.220;2023-05-01T15:54:47;101453.42;;;19.25;37.62
54022;BME280;39936;51.058;17.220;2023-05-01T15:58:32;101457.07;;;18.92;37.81
54022;BME280;39936;51.058;17.220;2023-05-01T16:05:44;101444.79;;;18.76;38.75
54022;BME280;39936;51.058;17.220;2023-05-01T16:09:29;101451.16;;;18.82;39.28
54022;BME280;39936;51.058;17.220;2023-05-01T16:13:15;101449.87;;;18.71;39.58
54022;BME280;39936;51.058;17.220;2023-05-01T16:17:26;101439.80;;;18.77;39.47
54022;BME280;39936;51.058;17.220;2023-05-01T16:24:33;101431.60;;;18.83;40.38
54022;BME280;39936;51.058;17.220;2023-05-01T16:28:24;101424.88;;;19.01;40.47
54022;BME280;39936;51.058;17.220;2023-05-01T16:32:04;101422.16;;;19.26;41.22
54022;BME280;39936;51.058;17.220;2023-05-01T16:35:42;101418.30;;;19.35;41.21
54022;BME280;39936;51.058;17.220;2023-05-01T16:39:26;101414.85;;;19.36;41.42
54022;BME280;39936;51.058;17.220;2023-05-01T16:43:26;101412.16;;;19.29;41.87
54022;BME280;39936;51.058;17.220;2023-05-01T16:47:16;101414.72;;;19.24;42.98
54022;BME280;39936;51.058;17.220;2023-05-01T16:51:18;101415.39;;;19.47;43.46
54022;BME280;39936;51.058;17.220;2023-05-01T16:54:56;101418.55;;;19.70;43.22
54022;BME280;39936;51.058;17.220;2023-05-01T16:58:37;101416.16;;;19.58;44.14
54022;BME280;39936;51.058;17.220;2023-05-01T17:02:19;101422.24;;;19.47;44.40
54022;BME280;39936;51.058;17.220;2023-05-01T17:09:33;101422.50;;;19.62;44.91
54022;BME280;39936;51.058;17.220;2023-05-01T17:13:44;101421.12;;;19.42;45.05
54022;BME280;39936;51.058;17.220;2023-05-01T17:17:23;101421.74;;;19.22;45.80
54022;BME280;39936;51.058;17.220;2023-05-01T17:20:43;101412.64;;;19.09;46.03
54022;BME280;39936;51.058;17.220;2023-05-01T17:24:19;101391.90;;;18.63;46.66
54022;BME280;39936;51.058;17.220;2023-05-01T17:32:11;101417.52;;;18.49;47.41
54022;BME280;39936;51.058;17.220;2023-05-01T17:35:40;101415.73;;;18.57;47.25
54022;BME280;39936;51.058;17.220;2023-05-01T17:39:14;101413.07;;;18.51;47.28
54022;BME280;39936;51.058;17.220;2023-05-01T17:43:05;101412.91;;;18.37;47.86
54022;BME280;39936;51.058;17.220;2023-05-01T17:46:44;101414.75;;;18.06;48.18
54022;BME280;39936;51.058;17.220;2023-05-01T17:50:26;101410.58;;;17.70;49.31
54022;BME280;39936;51.058;17.220;2023-05-01T17:58:33;101425.35;;;17.20;50.62
54022;BME280;39936;51.058;17.220;2023-05-01T18:02:32;101403.77;;;16.82;51.35
54022;BME280;39936;51.058;17.220;2023-05-01T18:06:16;101432.86;;;16.87;51.29
54022;BME280;39936;51.058;17.220;2023-05-01T18:13:51;101435.51;;;16.60;52.11
54022;BME280;39936;51.058;17.220;2023-05-01T18:17:30;101432.92;;;16.49;52.66
54022;BME280;39936;51.058;17.220;2023-05-01T18:20:51;101433.79;;;16.40;52.73
54022;BME280;39936;51.058;17.220;2023-05-01T18:24:10;101432.82;;;16.24;53.77
54022;BME280;39936;51.058;17.220;2023-05-01T18:27:33;101427.92;;;16.12;53.83
54022;BME280;39936;51.058;17.220;2023-05-01T18:31:37;101435.48;;;16.00;54.72
54022;BME280;39936;51.058;17.220;2023-05-01T18:35:10;101443.86;;;15.90;55.17
54022;BME280;39936;51.058;17.220;2023-05-01T18:39:11;101446.54;;;15.84;55.03
54022;BME280;39936;51.058;17.220;2023-05-01T18:42:50;101436.41;;;15.73;54.91
54022;BME280;39936;51.058;17.220;2023-05-01T18:46:31;101450.57;;;15.80;55.27
54022;BME280;39936;51.058;17.220;2023-05-01T18:54:09;101445.35;;;15.56;55.96
54022;BME280;39936;51.058;17.220;2023-05-01T18:58:08;101454.94;;;15.54;56.48
54022;BME280;39936;51.058;17.220;2023-05-01T19:01:44;101462.16;;;15.42;56.78
54022;BME280;39936;51.058;17.220;2023-05-01T19:05:56;101463.35;;;15.34;57.20
54022;BME280;39936;51.058;17.220;2023-05-01T19:13:27;101466.45;;;15.20;58.45
54022;BME280;39936;51.058;17.220;2023-05-01T19:16:57;101431.04;;;14.88;59.92
54022;BME280;39936;51.058;17.220;2023-05-01T19:20:47;101459.70;;;15.09;59.17
54022;BME280;39936;51.058;17.220;2023-05-01T19:24:34;101453.16;;;15.04;60.04
54022;BME280;39936;51.058;17.220;2023-05-01T19:28:12;101450.41;;;14.95;59.95
54022;BME280;39936;51.058;17.220;2023-05-01T19:32:22;101463.24;;;14.97;59.59
54022;BME280;39936;51.058;17.220;2023-05-01T19:36:31;101464.99;;;14.92;59.42
54022;BME280;39936;51.058;17.220;2023-05-01T19:44:11;101468.02;;;14.56;62.10
54022;BME280;39936;51.058;17.220;2023-05-01T19:47:50;101474.21;;;14.34;63.02
54022;BME280;39936;51.058;17.220;2023-05-01T19:53:04;101440.70;;;14.11;63.20
54022;BME280;39936;51.058;17.220;2023-05-01T19:57:00;101466.21;;;14.21;62.88
54022;BME280;39936;51.058;17.220;2023-05-01T20:00:41;101466.00;;;14.26;62.68
54022;BME280;39936;51.058;17.220;2023-05-01T20:04:30;101448.13;;;14.11;62.33
54022;BME280;39936;51.058;17.220;2023-05-01T20:12:06;101471.04;;;14.03;62.90
54022;BME280;39936;51.058;17.220;2023-05-01T20:16:22;101456.75;;;13.87;63.87
54022;BME280;39936;51.058;17.220;2023-05-01T20:19:42;101457.38;;;13.68;64.34
54022;BME280;39936;51.058;17.220;2023-05-01T20:23:17;101468.13;;;13.66;65.33
54022;BME280;39936;51.058;17.220;2023-05-01T20:27:25;101448.19;;;13.37;65.54
54022;BME280;39936;51.058;17.220;2023-05-01T20:31:45;101446.56;;;13.26;65.45
54022;BME280;39936;51.058;17.220;2023-05-01T20:34:57;101457.17;;;13.24;65.72
54022;BME280;39936;51.058;17.220;2023-05-01T20:38:46;101472.71;;;13.26;66.24
54022;BME280;39936;51.058;17.220;2023-05-01T20:54:10;101486.63;;;12.93;68.34
54022;BME280;39936;51.058;17.220;2023-05-01T20:58:03;101488.59;;;12.80;70.32
54022;BME280;39936;51.058;17.220;2023-05-01T21:01:39;101486.72;;;12.66;70.42
54022;BME280;39936;51.058;17.220;2023-05-01T21:05:37;101451.55;;;12.46;70.15
54022;BME280;39936;51.058;17.220;2023-05-01T21:08:58;101481.47;;;12.64;70.34
54022;BME280;39936;51.058;17.220;2023-05-01T21:12:46;101454.01;;;12.43;70.51
54022;BME280;39936;51.058;17.220;2023-05-01T21:16:46;101478.62;;;12.57;70.71
54022;BME280;39936;51.058;17.220;2023-05-01T21:20:11;101483.20;;;12.53;71.04
54022;BME280;39936;51.058;17.220;2023-05-01T21:23:50;101481.02;;;12.49;71.15
54022;BME280;39936;51.058;17.220;2023-05-01T21:27:31;101481.16;;;12.45;71.33
54022;BME280;39936;51.058;17.220;2023-05-01T21:35:46;101482.05;;;12.33;70.95
54022;BME280;39936;51.058;17.220;2023-05-01T21:39:58;101451.50;;;12.11;71.20
54022;BME280;39936;51.058;17.220;2023-05-01T21:43:57;101482.61;;;12.28;71.12
54022;BME280;39936;51.058;17.220;2023-05-01T21:47:14;101483.48;;;12.26;71.07
54022;BME280;39936;51.058;17.220;2023-05-01T21:51:02;101479.59;;;12.17;71.03
54022;BME280;39936;51.058;17.220;2023-05-01T21:54:37;101482.57;;;12.09;71.30
54022;BME280;39936;51.058;17.220;2023-05-01T21:59:00;101486.45;;;11.98;71.17
54022;BME280;39936;51.058;17.220;2023-05-01T22:02:42;101469.34;;;11.80;71.39
54022;BME280;39936;51.058;17.220;2023-05-01T22:06:23;101481.09;;;11.85;71.82
54022;BME280;39936;51.058;17.220;2023-05-01T22:13:52;101485.52;;;11.73;72.78
54022;BME280;39936;51.058;17.220;2023-05-01T22:17:09;101486.70;;;11.71;73.36
54022;BME280;39936;51.058;17.220;2023-05-01T22:20:47;101481.76;;;11.67;73.90
54022;BME280;39936;51.058;17.220;2023-05-01T22:24:22;101459.54;;;11.49;74.77